Gstaad, Switzerland
Current Conditions -  °F | °C
As of 2:50 PM on Monday 24 Nov 2014 (Local Time) from LSMS Reporting Station
Clear Clear  
Wind Chill: 57°   Ceiling: Unl
Heat Index: 57°   Visibility: 6mi
Dew Point: 45°   Wind: 6mph
Humidity: 63%   Direction: 240°WSW
Pressure: 30.15"   Gusts: NA
Location:  46.47°N, 7.29°E
Report Text: LSMS 241350Z 24005KT CAVOK 14/07 Q1021
Loading
Personal Weather Stations






























Interactive Weather Map New forecast layout! Learn more

10-Day Weather Forecast

Advertisements
Track Severe Weather on mobile